Time;durP1;ratioP1;P1;durP2;ratioP2;P2;SDS_P1;SDS_P2;PMS_P1;PMS_P2;Temp;Humidity;BMP_temperature;BMP_pressure;BME280_temperature;BME280_humidity;BME280_pressure;Samples;Min_cycle;Max_cycle;Signal;HPM_P1;HPM_P2
2021/11/26 00:01:24;;;;;;;58.38;28.00;;;1.90;99.90;;;;;;1970107;72;21095;-78
2021/11/26 00:03:50;;;;;;;48.87;26.95;;;1.90;99.90;;;;;;1976930;72;21098;-78
2021/11/26 00:06:20;;;;;;;49.55;26.33;;;1.90;99.90;;;;;;1972346;72;21047;-77
2021/11/26 00:08:44;;;;;;;44.70;27.05;;;1.80;99.90;;;;;;1970696;72;21467;-78
2021/11/26 00:11:10;;;;;;;42.17;27.20;;;1.90;99.90;;;;;;1970093;72;21592;-78
2021/11/26 00:13:44;;;;;;;43.38;27.32;;;1.90;99.90;;;;;;1973438;72;21567;-77
2021/11/26 00:16:08;;;;;;;44.98;26.73;;;1.90;99.90;;;;;;1982008;72;21135;-79
2021/11/26 00:18:36;;;;;;;43.63;26.52;;;1.90;99.90;;;;;;1974030;72;21111;-78
2021/11/26 00:21:00;;;;;;;45.78;26.15;;;1.90;99.90;;;;;;1970016;72;21080;-76
2021/11/26 00:23:26;;;;;;;53.02;26.40;;;1.90;99.90;;;;;;1966450;72;21120;-77
2021/11/26 00:25:52;;;;;;;41.05;26.05;;;2.00;99.90;;;;;;1973836;73;21491;-78
2021/11/26 00:28:18;;;;;;;44.65;27.27;;;2.00;99.90;;;;;;1971741;72;21495;-78
2021/11/26 00:30:47;;;;;;;49.53;28.73;;;2.00;99.90;;;;;;1984935;72;21590;-77
2021/11/26 00:33:12;;;;;;;53.92;27.98;;;1.90;99.90;;;;;;1969776;72;21100;-78
2021/11/26 00:35:38;;;;;;;48.08;28.62;;;1.90;99.90;;;;;;1980780;72;21062;-77
2021/11/26 00:38:04;;;;;;;45.75;25.90;;;1.90;99.90;;;;;;1988799;72;21024;-76
2021/11/26 00:40:30;;;;;;;40.88;27.07;;;1.90;99.90;;;;;;1979685;72;21249;-77
2021/11/26 00:42:56;;;;;;;43.83;28.23;;;1.90;99.90;;;;;;1973833;73;21490;-78
2021/11/26 00:45:24;;;;;;;44.18;28.60;;;1.80;99.90;;;;;;1973918;72;21531;-78
2021/11/26 00:47:50;;;;;;;40.58;26.42;;;1.90;99.90;;;;;;1973852;72;21224;-78
2021/11/26 00:50:16;;;;;;;48.73;29.75;;;1.90;99.90;;;;;;1970388;72;21054;-78
2021/11/26 00:52:42;;;;;;;47.85;29.50;;;1.80;99.90;;;;;;1973637;72;21128;-77
2021/11/26 00:55:08;;;;;;;46.65;28.77;;;1.70;99.90;;;;;;1974897;72;21140;-76
2021/11/26 00:57:35;;;;;;;47.53;29.70;;;1.70;99.90;;;;;;1941621;72;21104;-77
2021/11/26 01:00:01;;;;;;;45.63;28.60;;;1.70;99.90;;;;;;1969970;72;21083;-77
2021/11/26 01:02:27;;;;;;;55.25;29.75;;;1.60;99.90;;;;;;1971619;72;21075;-78
2021/11/26 01:04:53;;;;;;;44.58;29.27;;;1.60;99.90;;;;;;1975395;72;21149;-78
2021/11/26 01:07:19;;;;;;;44.13;29.07;;;1.70;99.90;;;;;;1966752;72;21058;-77
2021/11/26 01:09:45;;;;;;;46.65;28.85;;;1.80;99.90;;;;;;1973815;72;21109;-76
2021/11/26 01:12:12;;;;;;;46.92;28.92;;;2.00;99.90;;;;;;1975550;72;21228;-77
2021/11/26 01:14:38;;;;;;;42.90;28.02;;;2.00;99.90;;;;;;1975016;72;21456;-78
2021/11/26 01:17:04;;;;;;;49.45;29.42;;;1.90;99.90;;;;;;1962435;72;21542;-77
2021/11/26 01:19:31;;;;;;;45.55;29.60;;;2.00;99.90;;;;;;1974353;72;21539;-77
2021/11/26 01:21:57;;;;;;;52.95;27.75;;;1.90;99.90;;;;;;1985005;72;21060;-77
2021/11/26 01:24:23;;;;;;;56.85;29.52;;;2.00;99.90;;;;;;1973602;72;21120;-77
2021/11/26 01:26:50;;;;;;;41.00;27.87;;;2.10;99.90;;;;;;1982616;72;21066;-77
2021/11/26 01:29:16;;;;;;;49.75;28.23;;;2.00;99.90;;;;;;1970012;72;21036;-77
2021/11/26 01:31:42;;;;;;;51.05;30.20;;;2.00;99.90;;;;;;1969963;72;21180;-77
2021/11/26 01:34:09;;;;;;;54.08;30.92;;;2.10;99.90;;;;;;1978301;72;21506;-77
2021/11/26 01:36:35;;;;;;;52.73;29.65;;;2.00;99.90;;;;;;1968493;72;21133;-78
2021/11/26 01:39:01;;;;;;;50.33;28.95;;;1.90;99.90;;;;;;1973775;73;21172;-77
2021/11/26 01:41:27;;;;;;;51.92;28.57;;;1.90;99.90;;;;;;1973875;73;21158;-77
2021/11/26 01:43:54;;;;;;;66.30;30.90;;;1.90;99.90;;;;;;1973694;72;21174;-79
2021/11/26 01:46:20;;;;;;;61.53;30.48;;;1.90;99.90;;;;;;1966570;72;21471;-77
2021/11/26 01:48:46;;;;;;;50.17;31.73;;;1.90;99.90;;;;;;1973804;72;21580;-77
2021/11/26 01:51:12;;;;;;;60.78;31.75;;;1.80;99.90;;;;;;1957709;72;21074;-78
2021/11/26 01:53:38;;;;;;;55.00;32.50;;;1.80;99.90;;;;;;1969645;72;21246;-77
2021/11/26 01:59:05;;;;;;;52.55;32.42;;;1.90;99.90;;;;;;2037382;69;27822;-77
2021/11/26 02:01:31;;;;;;;49.05;31.23;;;1.70;99.90;;;;;;2020755;70;21060;-76
2021/11/26 02:03:57;;;;;;;49.73;30.37;;;1.80;99.90;;;;;;2007129;70;21046;-75
2021/11/26 02:06:24;;;;;;;43.17;28.45;;;1.90;99.90;;;;;;2008058;70;21124;-76
2021/11/26 02:08:50;;;;;;;46.77;30.23;;;2.00;99.90;;;;;;2011046;71;21027;-76
2021/11/26 02:11:16;;;;;;;45.60;29.92;;;1.90;99.90;;;;;;2007297;70;21063;-76
2021/11/26 02:13:42;;;;;;;61.58;30.68;;;1.90;99.90;;;;;;2009473;70;21030;-76
2021/11/26 02:16:09;;;;;;;49.53;31.35;;;1.90;99.90;;;;;;2010247;71;21108;-76
2021/11/26 02:18:35;;;;;;;53.73;31.20;;;2.00;99.90;;;;;;2006942;70;21128;-76
2021/11/26 02:21:02;;;;;;;50.38;30.45;;;1.90;99.90;;;;;;2010380;70;21088;-76
2021/11/26 02:23:28;;;;;;;57.75;31.40;;;1.90;99.90;;;;;;2008205;70;21163;-76
2021/11/26 02:25:54;;;;;;;57.73;31.62;;;1.90;99.90;;;;;;2009154;71;21448;-77
2021/11/26 02:28:20;;;;;;;54.75;30.77;;;1.90;99.90;;;;;;2013264;70;21397;-77
2021/11/26 02:30:46;;;;;;;49.05;30.15;;;1.90;99.90;;;;;;2004087;70;21458;-76
2021/11/26 02:33:12;;;;;;;48.52;29.72;;;1.90;99.90;;;;;;2016142;70;21856;-77
2021/11/26 02:35:38;;;;;;;45.88;29.87;;;2.00;99.90;;;;;;2010397;70;21060;-77
2021/11/26 02:38:04;;;;;;;51.75;31.05;;;1.80;99.90;;;;;;2010296;70;21048;-77
2021/11/26 02:40:31;;;;;;;59.70;29.37;;;1.80;99.90;;;;;;1998934;70;21039;-75
2021/11/26 02:42:57;;;;;;;52.60;30.82;;;1.90;99.90;;;;;;2006913;70;21020;-77
2021/11/26 02:45:23;;;;;;;54.93;31.42;;;1.90;99.90;;;;;;2006967;70;21198;-77
2021/11/26 02:47:49;;;;;;;48.95;29.40;;;1.90;99.90;;;;;;2012611;70;21214;-77
2021/11/26 02:50:15;;;;;;;44.00;28.32;;;1.90;99.90;;;;;;2010593;70;21051;-77
2021/11/26 02:52:41;;;;;;;49.88;28.25;;;1.90;99.90;;;;;;2010607;70;21213;-77
2021/11/26 02:55:07;;;;;;;46.88;28.30;;;1.80;99.90;;;;;;2009839;70;21512;-78
2021/11/26 02:57:33;;;;;;;53.38;29.72;;;1.80;99.90;;;;;;2016583;70;21455;-79
2021/11/26 03:00:00;;;;;;;43.33;27.82;;;1.70;99.90;;;;;;2013329;70;21452;-76
2021/11/26 03:02:26;;;;;;;55.67;30.32;;;1.70;99.90;;;;;;2006878;70;21528;-77
2021/11/26 03:04:52;;;;;;;54.83;31.52;;;1.70;99.90;;;;;;2007037;70;21429;-78
2021/11/26 03:07:19;;;;;;;56.50;31.80;;;1.70;99.90;;;;;;2010259;70;21024;-78
2021/11/26 03:09:45;;;;;;;52.85;32.50;;;1.70;99.90;;;;;;2014311;70;21144;-77
2021/11/26 03:12:11;;;;;;;53.50;31.50;;;1.70;99.90;;;;;;2011060;70;21038;-77
2021/11/26 03:14:37;;;;;;;52.15;31.10;;;1.80;99.90;;;;;;2014206;70;21194;-77
2021/11/26 03:17:05;;;;;;;46.53;29.25;;;1.80;99.90;;;;;;2010644;70;21121;-77
2021/11/26 03:19:31;;;;;;;60.40;29.70;;;1.90;99.90;;;;;;2006857;70;21465;-78
2021/11/26 03:21:57;;;;;;;51.58;28.77;;;1.90;99.90;;;;;;2014427;70;21519;-78
2021/11/26 03:24:24;;;;;;;45.52;29.42;;;1.90;99.90;;;;;;2009914;70;21516;-78
2021/11/26 03:26:50;;;;;;;44.77;28.07;;;1.90;99.90;;;;;;2027528;71;21461;-77
2021/11/26 03:29:16;;;;;;;45.67;29.63;;;1.90;99.90;;;;;;2015276;70;21117;-78
2021/11/26 03:31:42;;;;;;;46.77;28.55;;;1.80;99.90;;;;;;2009550;70;21428;-78
2021/11/26 03:34:08;;;;;;;45.35;28.80;;;1.90;99.90;;;;;;2009182;70;21439;-77
2021/11/26 03:36:34;;;;;;;54.42;28.87;;;2.00;99.90;;;;;;2009587;71;21488;-77
2021/11/26 03:39:00;;;;;;;48.92;27.90;;;2.00;99.90;;;;;;2006299;70;21048;-78
2021/11/26 03:41:26;;;;;;;45.95;28.10;;;2.10;99.90;;;;;;2009126;70;21047;-77
2021/11/26 03:43:53;;;;;;;45.08;28.90;;;1.90;99.90;;;;;;2009642;71;21012;-77
2021/11/26 03:46:20;;;;;;;50.98;30.88;;;1.90;99.90;;;;;;2016335;70;21039;-77
2021/11/26 03:48:46;;;;;;;50.60;29.75;;;1.80;99.90;;;;;;2018449;70;21075;-78
2021/11/26 03:51:12;;;;;;;48.83;30.55;;;1.90;99.90;;;;;;2013889;70;21032;-76
2021/11/26 03:53:38;;;;;;;53.38;30.55;;;1.80;99.90;;;;;;1998330;70;21123;-78
2021/11/26 03:56:04;;;;;;;53.75;30.77;;;1.80;99.90;;;;;;2013195;70;21031;-77
2021/11/26 03:58:30;;;;;;;51.55;30.35;;;1.70;99.90;;;;;;2007427;70;21052;-77
2021/11/26 04:00:56;;;;;;;47.05;28.90;;;1.80;99.90;;;;;;2009476;70;21146;-78
2021/11/26 04:03:23;;;;;;;44.08;28.23;;;1.80;99.90;;;;;;2005691;70;21044;-78
2021/11/26 04:05:49;;;;;;;47.70;27.80;;;1.80;99.90;;;;;;1998674;70;21145;-78
2021/11/26 04:08:15;;;;;;;44.23;28.40;;;1.80;99.90;;;;;;2008156;70;21506;-77
2021/11/26 04:10:41;;;;;;;41.75;27.42;;;1.70;99.90;;;;;;2003401;70;21446;-78
2021/11/26 04:13:09;;;;;;;45.03;25.65;;;1.80;99.90;;;;;;2011004;70;21499;-78
2021/11/26 04:15:37;;;;;;;41.65;26.40;;;1.80;99.90;;;;;;2000172;70;21105;-77
2021/11/26 04:18:03;;;;;;;43.85;27.93;;;1.80;99.90;;;;;;2016018;70;21150;-78
2021/11/26 04:20:29;;;;;;;49.00;25.80;;;1.80;99.90;;;;;;1997937;70;21160;-77
2021/11/26 04:22:55;;;;;;;51.63;27.90;;;1.80;99.90;;;;;;2003439;70;21463;-77
2021/11/26 04:25:21;;;;;;;45.78;28.32;;;1.80;99.90;;;;;;2001833;70;21455;-77
2021/11/26 04:27:47;;;;;;;54.23;28.73;;;1.80;99.90;;;;;;2009591;71;21495;-77
2021/11/26 04:30:14;;;;;;;46.20;25.72;;;1.80;99.90;;;;;;2003913;70;21516;-77
2021/11/26 04:32:40;;;;;;;43.20;26.30;;;1.90;99.90;;;;;;2000143;70;21051;-77
2021/11/26 04:35:06;;;;;;;49.63;27.65;;;2.00;99.90;;;;;;1999505;70;21105;-76
2021/11/26 04:37:32;;;;;;;41.53;25.60;;;2.00;99.90;;;;;;2007298;70;21201;-78
2021/11/26 04:39:59;;;;;;;44.70;26.33;;;2.00;99.90;;;;;;2008397;70;21584;-78
2021/11/26 04:42:25;;;;;;;44.42;26.55;;;2.00;99.90;;;;;;2009532;71;21051;-76
2021/11/26 04:44:51;;;;;;;44.38;25.57;;;2.00;99.90;;;;;;2009544;71;21098;-77
2021/11/26 04:47:17;;;;;;;44.60;25.43;;;2.00;99.90;;;;;;2009527;70;21099;-76
2021/11/26 04:49:44;;;;;;;44.75;26.12;;;2.00;99.90;;;;;;2018058;70;21117;-77
2021/11/26 04:52:10;;;;;;;52.45;26.73;;;2.00;99.90;;;;;;2023637;70;21170;-77
2021/11/26 04:54:36;;;;;;;49.33;29.27;;;2.10;99.90;;;;;;2016834;70;21096;-77
2021/11/26 04:57:02;;;;;;;51.77;27.93;;;2.10;99.90;;;;;;2006397;70;21172;-77
2021/11/26 04:59:28;;;;;;;48.25;29.45;;;2.10;99.90;;;;;;2008608;70;21106;-77
2021/11/26 05:01:54;;;;;;;46.28;28.52;;;2.00;99.90;;;;;;2006901;70;21054;-77
2021/11/26 05:04:20;;;;;;;52.85;29.18;;;1.90;99.90;;;;;;2012199;71;21055;-77
2021/11/26 05:06:46;;;;;;;50.90;31.90;;;1.90;99.90;;;;;;2003424;70;21412;-77
2021/11/26 05:09:12;;;;;;;55.60;31.02;;;1.90;99.90;;;;;;2008370;70;21462;-77
2021/11/26 05:11:39;;;;;;;49.45;31.17;;;1.90;99.90;;;;;;2006194;70;21539;-77
2021/11/26 05:14:06;;;;;;;60.65;33.00;;;1.80;99.90;;;;;;2008551;70;21046;-77
2021/11/26 05:16:32;;;;;;;54.08;32.88;;;1.90;99.90;;;;;;2006308;70;21470;-77
2021/11/26 05:18:59;;;;;;;58.95;32.83;;;1.80;99.90;;;;;;2009543;70;21206;-78
2021/11/26 05:21:25;;;;;;;62.53;33.85;;;1.70;99.90;;;;;;2006097;70;21043;-77
2021/11/26 05:23:51;;;;;;;53.45;32.25;;;1.70;99.90;;;;;;2006152;70;21021;-77
2021/11/26 05:26:17;;;;;;;55.95;33.08;;;1.70;99.90;;;;;;2010432;70;21216;-77
2021/11/26 05:28:43;;;;;;;57.75;33.90;;;1.70;99.90;;;;;;2015226;71;21121;-78
2021/11/26 05:31:09;;;;;;;62.20;35.00;;;1.60;99.90;;;;;;2007833;70;21048;-77
2021/11/26 05:33:35;;;;;;;59.90;32.28;;;1.70;99.90;;;;;;2008099;71;21009;-77
2021/11/26 05:36:01;;;;;;;75.30;33.63;;;1.60;99.90;;;;;;2009658;71;21048;-76
2021/11/26 05:38:27;;;;;;;63.70;33.05;;;1.70;99.90;;;;;;2009074;70;21121;-76
2021/11/26 05:40:54;;;;;;;68.05;33.13;;;1.70;99.90;;;;;;2004371;70;21038;-76
2021/11/26 05:43:20;;;;;;;54.98;31.73;;;1.70;99.90;;;;;;2004267;70;21056;-76
2021/11/26 05:45:46;;;;;;;52.48;32.08;;;1.70;99.90;;;;;;2009153;70;21020;-78
2021/11/26 05:48:12;;;;;;;51.33;34.33;;;1.80;99.90;;;;;;2009574;71;21133;-76
2021/11/26 05:50:38;;;;;;;62.95;32.23;;;1.70;99.90;;;;;;2009604;71;21090;-76
2021/11/26 05:53:04;;;;;;;59.15;33.80;;;1.70;99.90;;;;;;2008198;70;21140;-76
2021/11/26 05:55:33;;;;;;;54.33;30.27;;;1.70;99.90;;;;;;2016704;70;21593;-78
2021/11/26 05:58:00;;;;;;;51.63;30.68;;;1.80;99.90;;;;;;2002310;70;21078;-77
2021/11/26 06:00:26;;;;;;;57.88;31.35;;;2.00;99.90;;;;;;1998415;70;21028;-78
2021/11/26 06:02:52;;;;;;;54.45;30.00;;;2.00;99.90;;;;;;2009756;71;21044;-77
2021/11/26 06:05:18;;;;;;;52.23;30.15;;;2.00;99.90;;;;;;2011392;70;21160;-79
2021/11/26 06:07:44;;;;;;;51.15;32.23;;;2.00;99.90;;;;;;2007009;70;21046;-78
2021/11/26 06:10:10;;;;;;;57.03;31.90;;;1.90;99.90;;;;;;2009390;70;21072;-77
2021/11/26 06:12:36;;;;;;;53.80;30.08;;;2.00;99.90;;;;;;2012968;70;21110;-78
2021/11/26 06:15:03;;;;;;;62.27;32.88;;;2.00;99.90;;;;;;2009236;70;21122;-78
2021/11/26 06:17:29;;;;;;;57.08;32.15;;;2.00;99.90;;;;;;2009517;71;21103;-77
2021/11/26 06:19:55;;;;;;;61.45;32.98;;;2.10;99.90;;;;;;2009440;71;21055;-78
2021/11/26 06:22:21;;;;;;;56.80;30.62;;;2.10;99.90;;;;;;2009455;70;21124;-78
2021/11/26 06:24:47;;;;;;;51.20;30.20;;;2.20;99.90;;;;;;2009382;70;21468;-77
2021/11/26 06:27:13;;;;;;;45.90;30.48;;;2.20;99.90;;;;;;2008943;70;21468;-77
2021/11/26 06:29:39;;;;;;;58.55;32.80;;;2.10;99.90;;;;;;2002577;70;21426;-77
2021/11/26 06:32:05;;;;;;;55.03;32.25;;;2.10;99.90;;;;;;2006422;70;21447;-77
2021/11/26 06:34:32;;;;;;;56.50;31.68;;;2.00;99.90;;;;;;2009402;71;21024;-78
2021/11/26 06:36:58;;;;;;;61.40;33.00;;;2.10;99.90;;;;;;2009361;70;21215;-78
2021/11/26 06:39:24;;;;;;;60.63;32.73;;;2.10;99.90;;;;;;2005530;70;21120;-77
2021/11/26 06:41:51;;;;;;;56.85;32.20;;;2.00;99.90;;;;;;2010817;70;21051;-78
2021/11/26 06:44:17;;;;;;;65.25;31.17;;;2.10;99.90;;;;;;2007630;70;21103;-76
2021/11/26 06:46:43;;;;;;;58.25;31.50;;;2.10;99.90;;;;;;2009606;71;21444;-78
2021/11/26 06:49:09;;;;;;;59.33;33.92;;;2.10;99.90;;;;;;2006062;70;21409;-76
2021/11/26 06:51:35;;;;;;;60.50;31.85;;;2.10;99.90;;;;;;2007371;70;21447;-77
2021/11/26 06:54:02;;;;;;;64.05;31.42;;;2.30;99.90;;;;;;2020623;70;21126;-77
2021/11/26 06:56:28;;;;;;;50.67;31.05;;;2.40;99.90;;;;;;2013362;70;21176;-80
2021/11/26 06:58:58;;;;;;;51.55;31.77;;;2.50;99.90;;;;;;2006003;70;21121;-76
2021/11/26 07:01:22;;;;;;;55.23;31.12;;;2.60;99.90;;;;;;2011875;70;21165;-81
2021/11/26 07:03:48;;;;;;;58.00;31.68;;;2.50;99.90;;;;;;2012349;70;21070;-80
2021/11/26 07:06:14;;;;;;;50.92;31.80;;;2.40;99.90;;;;;;2006337;70;21222;-74
2021/11/26 07:08:40;;;;;;;60.25;31.40;;;2.40;99.90;;;;;;2009433;70;21035;-76
2021/11/26 07:11:06;;;;;;;47.90;31.12;;;2.30;99.90;;;;;;2009032;70;21051;-76
2021/11/26 07:13:32;;;;;;;65.65;34.13;;;2.30;99.90;;;;;;2005756;70;21055;-77
2021/11/26 07:15:59;;;;;;;61.63;34.73;;;2.20;99.90;;;;;;2005312;70;21156;-78
2021/11/26 07:18:25;;;;;;;58.63;33.15;;;2.10;99.90;;;;;;2006137;70;21035;-74
2021/11/26 07:20:51;;;;;;;59.42;32.67;;;2.10;99.90;;;;;;2010989;70;21076;-79
2021/11/26 07:23:17;;;;;;;62.43;30.32;;;2.10;99.90;;;;;;2004131;70;21440;-76
2021/11/26 07:25:43;;;;;;;55.08;31.75;;;2.20;99.90;;;;;;2009044;70;21511;-77
2021/11/26 07:28:09;;;;;;;62.45;33.40;;;2.00;99.90;;;;;;2009217;70;21130;-76
2021/11/26 07:30:35;;;;;;;58.63;33.55;;;1.90;99.90;;;;;;2006524;71;21133;-76
2021/11/26 07:33:01;;;;;;;67.78;34.13;;;1.90;99.90;;;;;;2006117;70;21133;-76
2021/11/26 07:35:28;;;;;;;68.30;36.93;;;1.90;99.90;;;;;;2027676;71;21023;-75
2021/11/26 07:37:54;;;;;;;60.33;34.65;;;1.90;99.90;;;;;;2027407;71;21082;-74
2021/11/26 07:40:20;;;;;;;65.55;34.92;;;1.90;99.90;;;;;;2010925;70;21136;-82
2021/11/26 07:42:46;;;;;;;69.22;35.30;;;1.90;99.90;;;;;;2020707;70;21052;-74
2021/11/26 07:45:12;;;;;;;83.85;37.75;;;1.90;99.90;;;;;;2013170;70;21040;-74
2021/11/26 07:47:38;;;;;;;72.75;37.53;;;1.80;99.90;;;;;;2009583;71;21121;-77
2021/11/26 07:50:04;;;;;;;70.12;36.45;;;1.80;99.90;;;;;;2006265;70;21493;-76
2021/11/26 07:52:31;;;;;;;66.47;34.05;;;1.90;99.90;;;;;;2006507;70;21365;-77
2021/11/26 07:54:58;;;;;;;64.65;36.08;;;1.90;99.90;;;;;;2015962;70;21041;-76
2021/11/26 07:57:25;;;;;;;72.92;37.13;;;1.80;99.90;;;;;;2005290;70;21035;-75
2021/11/26 07:59:51;;;;;;;77.97;38.35;;;1.90;99.90;;;;;;2003195;70;21055;-75
2021/11/26 08:02:17;;;;;;;72.08;36.03;;;1.90;99.90;;;;;;2017985;71;21013;-75
2021/11/26 08:04:43;;;;;;;76.00;36.13;;;1.80;99.90;;;;;;2000079;70;21129;-75
2021/11/26 08:07:09;;;;;;;63.50;36.80;;;1.90;99.90;;;;;;2008795;70;21173;-74
2021/11/26 08:09:36;;;;;;;73.83;35.63;;;1.90;99.90;;;;;;2005234;70;21047;-76
2021/11/26 08:12:02;;;;;;;62.70;33.30;;;2.00;99.90;;;;;;2004888;70;21124;-75
2021/11/26 08:14:28;;;;;;;68.00;32.60;;;2.00;99.90;;;;;;2011322;70;21075;-76
2021/11/26 08:16:55;;;;;;;60.83;33.58;;;2.10;99.90;;;;;;2016520;71;21012;-75
2021/11/26 08:19:22;;;;;;;62.03;33.80;;;2.00;99.90;;;;;;2009907;70;21130;-75
2021/11/26 08:21:48;;;;;;;69.15;35.52;;;1.90;99.90;;;;;;2006585;70;21129;-76
2021/11/26 08:24:14;;;;;;;61.02;35.33;;;1.90;99.90;;;;;;2002615;70;21125;-76
2021/11/26 08:26:40;;;;;;;59.27;33.90;;;2.00;99.90;;;;;;2009229;70;21136;-76
2021/11/26 08:29:06;;;;;;;55.20;33.08;;;2.00;99.90;;;;;;2003887;70;21028;-75
2021/11/26 08:31:33;;;;;;;67.42;34.18;;;2.00;99.90;;;;;;2018875;71;21008;-77
2021/11/26 08:33:59;;;;;;;66.25;34.83;;;2.00;99.90;;;;;;2009721;70;21153;-77
2021/11/26 08:36:25;;;;;;;64.75;35.60;;;2.20;99.90;;;;;;1998951;70;21039;-76
2021/11/26 08:38:51;;;;;;;65.80;36.17;;;2.20;99.90;;;;;;2006474;70;21048;-75
2021/11/26 08:41:17;;;;;;;64.12;35.28;;;2.20;99.90;;;;;;2009700;70;21129;-75
2021/11/26 08:43:43;;;;;;;61.35;32.88;;;2.10;99.90;;;;;;2009652;70;21239;-76
2021/11/26 08:46:09;;;;;;;75.15;33.30;;;2.10;99.90;;;;;;2009400;70;21075;-76
2021/11/26 08:48:35;;;;;;;61.02;34.27;;;2.10;99.90;;;;;;2006994;70;21058;-76
2021/11/26 08:51:02;;;;;;;61.90;34.80;;;2.20;99.90;;;;;;2012085;70;21690;-76
2021/11/26 08:53:29;;;;;;;73.57;35.60;;;2.30;99.90;;;;;;2012571;70;21117;-76
2021/11/26 08:55:55;;;;;;;63.92;32.58;;;2.40;99.90;;;;;;2008478;70;21487;-76
2021/11/26 08:58:21;;;;;;;55.78;31.87;;;2.40;99.90;;;;;;2010565;70;21467;-76
2021/11/26 09:00:47;;;;;;;64.55;33.85;;;2.30;99.90;;;;;;2007088;70;21420;-75
2021/11/26 09:03:13;;;;;;;65.42;33.30;;;2.30;99.90;;;;;;2005539;70;21636;-75
2021/11/26 09:05:39;;;;;;;76.07;34.55;;;2.30;99.90;;;;;;2006063;70;21175;-75
2021/11/26 09:08:06;;;;;;;69.53;36.95;;;2.20;99.90;;;;;;2009670;71;21133;-75
2021/11/26 09:10:32;;;;;;;62.98;34.05;;;2.30;99.90;;;;;;2002422;70;21060;-77
2021/11/26 09:13:00;;;;;;;81.70;35.98;;;2.30;99.90;;;;;;2006161;70;21063;-75
2021/11/26 09:15:26;;;;;;;65.15;34.48;;;2.30;99.90;;;;;;2008595;70;21142;-76
2021/11/26 09:17:52;;;;;;;71.97;36.50;;;2.50;99.90;;;;;;2016862;71;21039;-76
2021/11/26 09:20:18;;;;;;;74.58;35.75;;;2.40;99.90;;;;;;2012703;70;21205;-75
2021/11/26 09:22:44;;;;;;;73.55;34.90;;;2.40;99.90;;;;;;2018662;70;21067;-76
2021/11/26 09:25:10;;;;;;;67.95;36.55;;;2.40;99.90;;;;;;2012162;70;21141;-76
2021/11/26 09:27:36;;;;;;;67.40;35.73;;;2.40;99.90;;;;;;2012968;70;21051;-75
2021/11/26 09:30:02;;;;;;;72.20;36.15;;;2.40;99.90;;;;;;1999362;70;21047;-75
2021/11/26 09:32:29;;;;;;;84.75;38.08;;;2.40;99.90;;;;;;2018557;70;21304;-75
2021/11/26 09:34:55;;;;;;;69.85;36.00;;;2.50;99.90;;;;;;2010990;70;21097;-75
2021/11/26 09:37:21;;;;;;;65.28;34.40;;;2.50;99.90;;;;;;2017701;70;21109;-75
2021/11/26 09:39:47;;;;;;;66.92;34.70;;;2.50;99.90;;;;;;2020199;70;21133;-75
2021/11/26 09:42:13;;;;;;;62.45;33.85;;;2.60;99.90;;;;;;2006057;70;21044;-75
2021/11/26 09:44:41;;;;;;;61.08;35.95;;;2.60;99.90;;;;;;2005709;70;21133;-76
2021/11/26 09:47:07;;;;;;;65.05;33.88;;;2.60;99.90;;;;;;2009325;70;21077;-76
2021/11/26 09:49:33;;;;;;;72.78;35.73;;;2.80;99.90;;;;;;2008685;70;21134;-76
2021/11/26 09:51:59;;;;;;;63.48;35.38;;;2.70;99.90;;;;;;2005599;70;21106;-75
2021/11/26 09:54:25;;;;;;;63.45;34.85;;;2.70;99.90;;;;;;2009787;71;21028;-76
2021/11/26 09:56:51;;;;;;;80.55;35.25;;;2.80;99.90;;;;;;2009515;70;21052;-75
2021/11/26 09:59:18;;;;;;;56.77;32.15;;;2.80;99.90;;;;;;2009448;70;21048;-75
2021/11/26 10:01:44;;;;;;;57.83;33.53;;;2.80;99.90;;;;;;2009580;71;21032;-75
2021/11/26 10:04:10;;;;;;;66.60;32.13;;;2.80;99.90;;;;;;2005191;70;21118;-76
2021/11/26 10:06:44;;;;;;;67.97;35.10;;;2.90;99.90;;;;;;2009563;71;21106;-76
2021/11/26 10:09:07;;;;;;;62.58;34.80;;;3.00;99.90;;;;;;2006706;70;21055;-76
2021/11/26 10:11:33;;;;;;;63.80;34.55;;;3.00;99.90;;;;;;2018982;70;21158;-75
2021/11/26 10:13:59;;;;;;;64.92;33.83;;;2.90;99.90;;;;;;2008160;70;21242;-75
2021/11/26 10:16:25;;;;;;;63.50;31.52;;;2.80;99.90;;;;;;2005463;70;21559;-76
2021/11/26 10:18:51;;;;;;;53.05;31.05;;;2.90;99.90;;;;;;2003198;70;21408;-77
2021/11/26 10:21:17;;;;;;;55.52;32.13;;;2.80;99.90;;;;;;2006437;71;21106;-76
2021/11/26 10:23:44;;;;;;;63.38;33.60;;;2.80;99.90;;;;;;2008306;70;21050;-77
2021/11/26 10:26:10;;;;;;;56.40;32.33;;;3.00;99.90;;;;;;2015178;70;21066;-76
2021/11/26 10:28:36;;;;;;;57.70;32.23;;;2.90;99.90;;;;;;2017588;70;21464;-77
2021/11/26 10:31:02;;;;;;;56.15;31.42;;;2.90;99.90;;;;;;2009631;71;21416;-76
2021/11/26 10:33:29;;;;;;;60.40;33.25;;;2.90;99.90;;;;;;2009621;70;21545;-76
2021/11/26 10:35:55;;;;;;;55.43;30.40;;;2.90;99.90;;;;;;2001104;70;21055;-77
2021/11/26 10:38:21;;;;;;;59.63;33.08;;;2.90;99.90;;;;;;2013203;70;21145;-76
2021/11/26 10:40:49;;;;;;;54.50;30.50;;;2.90;99.90;;;;;;2004730;70;21040;-76
2021/11/26 10:43:15;;;;;;;68.10;30.02;;;2.90;99.90;;;;;;2005495;70;21145;-74
2021/11/26 10:45:56;;;;;;;54.18;31.15;;;3.00;99.90;;;;;;2009554;71;21125;-76
2021/11/26 10:48:44;;;;;;;55.17;30.77;;;3.00;99.90;;;;;;2006564;70;21220;-73
2021/11/26 10:50:55;;;;;;;59.88;30.97;;;3.00;99.90;;;;;;2003250;70;21073;-75
2021/11/26 10:58:49;;;;;;;61.18;32.42;;;3.10;99.90;;;;;;2014227;70;21123;-76
2021/11/26 11:01:14;;;;;;;48.98;29.57;;;3.20;99.90;;;;;;2009466;70;21452;-74
2021/11/26 11:03:40;;;;;;;58.65;32.40;;;3.20;99.90;;;;;;2011792;70;21046;-76
2021/11/26 11:06:07;;;;;;;53.73;30.12;;;3.20;99.90;;;;;;2005950;70;21141;-75
2021/11/26 11:08:33;;;;;;;52.90;29.23;;;3.20;99.90;;;;;;2005829;70;21124;-76
2021/11/26 11:11:01;;;;;;;50.80;30.10;;;3.10;99.90;;;;;;2012003;70;21051;-76
2021/11/26 11:13:27;;;;;;;58.05;31.23;;;3.20;99.90;;;;;;2004080;70;21067;-76
2021/11/26 11:15:53;;;;;;;51.45;29.45;;;3.40;99.90;;;;;;2020837;70;21094;-77
2021/11/26 11:18:19;;;;;;;51.65;30.60;;;3.40;99.90;;;;;;2008079;70;21160;-77
2021/11/26 11:20:45;;;;;;;52.55;29.67;;;3.40;99.90;;;;;;2009462;70;21448;-77
2021/11/26 11:23:14;;;;;;;53.58;30.12;;;3.30;99.90;;;;;;2003008;70;21440;-77
2021/11/26 11:25:40;;;;;;;50.73;29.37;;;3.20;99.90;;;;;;2004682;70;21180;-76
2021/11/26 11:28:07;;;;;;;59.18;29.60;;;3.30;99.90;;;;;;2005827;70;21052;-78
2021/11/26 11:30:33;;;;;;;62.45;30.37;;;3.30;99.90;;;;;;2015271;70;21043;-77
2021/11/26 11:32:59;;;;;;;52.98;31.10;;;3.30;99.90;;;;;;2013844;71;21008;-78
2021/11/26 11:35:25;;;;;;;59.58;28.87;;;3.40;99.90;;;;;;2001987;70;21040;-78
2021/11/26 11:37:51;;;;;;;48.83;28.83;;;3.40;99.90;;;;;;2009522;70;21133;-78
2021/11/26 11:40:17;;;;;;;51.80;29.12;;;3.50;99.90;;;;;;2009120;70;21059;-77
2021/11/26 11:42:44;;;;;;;48.73;28.05;;;3.40;99.90;;;;;;2011159;70;21548;-77
2021/11/26 11:45:10;;;;;;;55.83;29.75;;;3.30;99.90;;;;;;2011107;70;21137;-76
2021/11/26 11:47:38;;;;;;;56.75;29.40;;;3.30;99.90;;;;;;2009601;71;21131;-77
2021/11/26 11:50:04;;;;;;;49.88;28.15;;;3.30;99.90;;;;;;2009359;70;21056;-78
2021/11/26 11:52:30;;;;;;;51.05;28.83;;;3.30;99.90;;;;;;2009873;71;21433;-77
2021/11/26 11:54:56;;;;;;;46.23;28.05;;;3.30;99.90;;;;;;2009655;71;21464;-77
2021/11/26 11:57:22;;;;;;;48.63;26.65;;;3.40;99.90;;;;;;2009515;70;21560;-76
2021/11/26 11:59:53;;;;;;;51.58;27.60;;;3.50;99.90;;;;;;2009569;70;21056;-77
2021/11/26 12:02:16;;;;;;;43.73;26.97;;;3.60;99.90;;;;;;2002933;70;21072;-77
2021/11/26 12:04:43;;;;;;;55.25;27.90;;;3.60;99.90;;;;;;2009371;70;21051;-76
2021/11/26 12:07:09;;;;;;;56.20;28.02;;;3.60;99.90;;;;;;2016450;71;21043;-77
2021/11/26 12:09:35;;;;;;;51.40;28.40;;;3.50;99.90;;;;;;2013246;70;21051;-77
2021/11/26 12:12:01;;;;;;;57.23;26.15;;;3.60;99.90;;;;;;2009988;70;21145;-77
2021/11/26 12:14:27;;;;;;;42.38;25.57;;;3.80;99.90;;;;;;2005881;70;21226;-79
2021/11/26 12:17:11;;;;;;;37.80;23.32;;;3.60;99.90;;;;;;2016281;70;21216;-77
2021/11/26 12:19:21;;;;;;;37.75;23.40;;;3.50;99.90;;;;;;2003429;70;21084;-78
2021/11/26 12:21:47;;;;;;;45.33;26.70;;;3.40;99.90;;;;;;2009870;70;21048;-78
2021/11/26 12:24:22;;;;;;;47.13;25.97;;;3.40;99.90;;;;;;2005637;70;21036;-77
2021/11/26 12:26:49;;;;;;;43.02;23.52;;;3.50;99.90;;;;;;2006442;70;21165;-77
2021/11/26 12:29:15;;;;;;;36.58;23.60;;;3.50;99.90;;;;;;2011064;70;21473;-77
2021/11/26 12:31:41;;;;;;;43.58;24.12;;;3.50;99.90;;;;;;2006605;70;21448;-77
2021/11/26 12:34:07;;;;;;;45.20;24.27;;;3.60;99.90;;;;;;1978524;71;21133;-77
2021/11/26 12:36:33;;;;;;;39.58;24.47;;;3.70;99.90;;;;;;1974110;73;21173;-77
2021/11/26 12:38:59;;;;;;;43.10;24.80;;;3.70;99.90;;;;;;1973480;72;21078;-76